Nrc Columbia — WDA8288 — position and weather

sailwx.info

Track history (hours):
 
Tides and Currents Weather Stations Pressure Air Temp Water Temp Dewpoint Dewpoint Depression Visibility Wind Speed Wind Dir Waves Ship Positions

Nrc Columbia

Owner: National Response Corporation, The Woodlands, TX. More information available from US FCC via Universal Licensing System and Coast Guard Vessel Documentation Center.

Last reported at 2018-Apr-21 18:05 UTC. Time now 2018-Apr-22 04:36 UTC.
Position N 48°49' W 122°46'.

Length 35 m.

Type: Pollution control. MMSI: 366710170.

Date/timePositionNaut miles runAvg speedWind from/ knotsBaromVisibWave heightAir tempDewpointWater temp
2018-Apr-21 18:05N 48°49' W 122°46'1 3.9
2018-Apr-21 17:52N 48°49' W 122°47'0 1.0
2018-Apr-21 17:28N 48°48' W 122°47'2 2.9
2018-Apr-21 16:44N 48°49' W 122°44'1 0.2
2018-Apr-21 12:42N 48°50' W 122°43'  
2018-Apr-18 00:48N 48°49' W 122°43'0 0.5
2018-Apr-18 00:23N 48°49' W 122°43'6 1.5
2018-Apr-17 20:02N 48°43' W 122°40'0 0.0
2018-Apr-17 17:04N 48°43' W 122°40'0 0.0
2018-Apr-17 14:04N 48°43' W 122°40'0 0.0
2018-Apr-17 13:59N 48°43' W 122°40'0 0.1
2018-Apr-17 13:24N 48°43' W 122°40'3 5.0
2018-Apr-17 12:53N 48°45' W 122°42'1 1.8
2018-Apr-17 12:13N 48°44' W 122°41'2 8.0
2018-Apr-17 11:55N 48°42' W 122°39'3 7.3
2018-Apr-17 11:30N 48°40' W 122°36'3 5.6
2018-Apr-17 11:00N 48°42' W 122°33'2 2.8
2018-Apr-17 10:25N 48°43' W 122°31'0 0.0
2018-Apr-17 09:49N 48°43' W 122°31'0 0.0
2018-Apr-17 09:19N 48°43' W 122°31'0 0.0
2018-Apr-17 08:58N 48°43' W 122°31'0 0.0
2018-Apr-17 08:28N 48°43' W 122°31'0 0.0
2018-Apr-17 07:58N 48°43' W 122°31'0 0.0
2018-Apr-17 07:28N 48°43' W 122°31'0 0.0
2018-Apr-17 06:55N 48°43' W 122°31'0 0.0
2018-Apr-17 06:25N 48°43' W 122°31'0 0.0
2018-Apr-17 05:59N 48°43' W 122°31'0 0.0
2018-Apr-17 05:28N 48°43' W 122°31'0 0.0
2018-Apr-17 04:56N 48°43' W 122°31'0 0.0
2018-Apr-17 04:29N 48°43' W 122°31'0 0.0
2018-Apr-17 03:58N 48°43' W 122°31'0 0.0
2018-Apr-17 03:25N 48°43' W 122°31'0 0.0
2018-Apr-17 02:49N 48°43' W 122°31'0 0.5
2018-Apr-17 02:30N 48°43' W 122°31'0 0.0
2018-Apr-16 05:42N 48°43' W 122°31'1 3.9
2018-Apr-16 05:30N 48°43' W 122°32'3 6.9
2018-Apr-16 05:00N 48°40' W 122°35'4 8.1
2018-Apr-16 04:28N 48°43' W 122°40'4 8.1
2018-Apr-16 04:00N 48°46' W 122°43'  
Track history (hours):
 
Tides and Currents Weather Stations Pressure Air Temp Water Temp Dewpoint Dewpoint Depression Visibility Wind Speed Wind Dir Waves Ship Positions

Nrc Columbia

Owner: National Response Corporation, The Woodlands, TX. More information available from US FCC via Universal Licensing System and Coast Guard Vessel Documentation Center.

Last reported at 2018-Apr-21 18:05 UTC. Time now 2018-Apr-22 04:36 UTC.
Position N 48°49' W 122°46'.

Length 35 m.

Type: Pollution control. MMSI: 366710170.

Date/timePositionNaut miles runAvg speedWind from/ knotsBaromVisibWave heightAir tempDewpointWater temp
2018-Apr-21 18:05N 48°49' W 122°46'1 3.9
2018-Apr-21 17:52N 48°49' W 122°47'0 1.0
2018-Apr-21 17:28N 48°48' W 122°47'2 2.9
2018-Apr-21 16:44N 48°49' W 122°44'1 0.2
2018-Apr-21 12:42N 48°50' W 122°43'  
2018-Apr-18 00:48N 48°49' W 122°43'0 0.5
2018-Apr-18 00:23N 48°49' W 122°43'6 1.5
2018-Apr-17 20:02N 48°43' W 122°40'0 0.0
2018-Apr-17 17:04N 48°43' W 122°40'0 0.0
2018-Apr-17 14:04N 48°43' W 122°40'0 0.0
2018-Apr-17 13:59N 48°43' W 122°40'0 0.1
2018-Apr-17 13:24N 48°43' W 122°40'3 5.0
2018-Apr-17 12:53N 48°45' W 122°42'1 1.8
2018-Apr-17 12:13N 48°44' W 122°41'2 8.0
2018-Apr-17 11:55N 48°42' W 122°39'3 7.3
2018-Apr-17 11:30N 48°40' W 122°36'3 5.6
2018-Apr-17 11:00N 48°42' W 122°33'2 2.8
2018-Apr-17 10:25N 48°43' W 122°31'0 0.0
2018-Apr-17 09:49N 48°43' W 122°31'0 0.0
2018-Apr-17 09:19N 48°43' W 122°31'0 0.0
2018-Apr-17 08:58N 48°43' W 122°31'0 0.0
2018-Apr-17 08:28N 48°43' W 122°31'0 0.0
2018-Apr-17 07:58N 48°43' W 122°31'0 0.0
2018-Apr-17 07:28N 48°43' W 122°31'0 0.0
2018-Apr-17 06:55N 48°43' W 122°31'0 0.0
2018-Apr-17 06:25N 48°43' W 122°31'0 0.0
2018-Apr-17 05:59N 48°43' W 122°31'0 0.0
2018-Apr-17 05:28N 48°43' W 122°31'0 0.0
2018-Apr-17 04:56N 48°43' W 122°31'0 0.0
2018-Apr-17 04:29N 48°43' W 122°31'0 0.0
2018-Apr-17 03:58N 48°43' W 122°31'0 0.0
2018-Apr-17 03:25N 48°43' W 122°31'0 0.0
2018-Apr-17 02:49N 48°43' W 122°31'0 0.5
2018-Apr-17 02:30N 48°43' W 122°31'0 0.0
2018-Apr-16 05:42N 48°43' W 122°31'1 3.9
2018-Apr-16 05:30N 48°43' W 122°32'3 6.9
2018-Apr-16 05:00N 48°40' W 122°35'4 8.1
2018-Apr-16 04:28N 48°43' W 122°40'4 8.1
2018-Apr-16 04:00N 48°46' W 122°43'  

Dump ship's entire track history